Time;durP1;ratioP1;P1;durP2;ratioP2;P2;SDS_P1;SDS_P2;PMS_P1;PMS_P2;Temp;Humidity;BMP_temperature;BMP_pressure;BME280_temperature;BME280_humidity;BME280_pressure;Samples;Min_cycle;Max_cycle;Signal;HPM_P1;HPM_P2
2022/10/09 00:00:35;;;;;;;18.30;11.50;;;;;;;12.96;77.47;99362.39;87044;1312;22888;-83
2022/10/09 00:02:57;;;;;;;25.50;10.60;;;;;;;12.96;77.18;99361.68;87103;1306;22559;-83
2022/10/09 00:04:58;;;;;;;18.00;8.90;;;;;;;12.95;77.12;99364.19;87089;1313;22484;-83
2022/10/09 00:07:00;;;;;;;19.40;9.10;;;;;;;12.95;77.09;99370.55;87061;1313;22498;-83
2022/10/09 00:09:02;;;;;;;18.50;9.30;;;;;;;12.95;77.08;99373.75;87117;1310;26499;-83
2022/10/09 00:11:13;;;;;;;17.70;8.70;;;;;;;12.95;76.88;99377.63;87021;1301;22525;-83
2022/10/09 00:13:15;;;;;;;13.60;9.30;;;;;;;12.95;77.01;99377.79;87376;1306;22462;-85
2022/10/09 00:15:17;;;;;;;22.80;9.10;;;;;;;12.94;76.86;99378.72;87249;1313;22497;-84
2022/10/09 00:17:18;;;;;;;11.60;7.20;;;;;;;12.93;76.84;99379.11;87443;1319;22529;-84
2022/10/09 00:19:20;;;;;;;13.50;7.60;;;;;;;12.92;76.78;99384.80;87480;1300;22566;-81
2022/10/09 00:21:25;;;;;;;19.10;8.00;;;;;;;12.91;76.49;99384.67;87143;1308;22532;-82
2022/10/09 00:23:27;;;;;;;17.20;6.60;;;;;;;12.88;76.73;99386.77;87300;1314;22498;-83
2022/10/09 00:25:29;;;;;;;13.10;6.50;;;;;;;12.89;76.65;99393.24;87335;1294;22499;-83
2022/10/09 00:27:30;;;;;;;13.30;5.90;;;;;;;12.87;76.44;99393.70;87191;1304;22503;-83
2022/10/09 00:29:32;;;;;;;13.30;6.00;;;;;;;12.83;76.16;99386.50;87246;1306;22601;-84
2022/10/09 00:31:34;;;;;;;20.30;6.00;;;;;;;12.85;76.17;99395.05;87287;1309;22521;-83
2022/10/09 00:33:37;;;;;;;11.10;5.00;;;;;;;12.84;75.98;99403.42;87368;1300;22542;-83
2022/10/09 00:35:39;;;;;;;16.20;5.40;;;;;;;12.82;76.05;99406.86;87317;1296;22495;-84
2022/10/09 00:37:41;;;;;;;12.40;6.10;;;;;;;12.81;75.90;99403.56;87396;1295;22784;-85
2022/10/09 00:39:42;;;;;;;13.80;6.90;;;;;;;12.81;76.17;99406.40;87332;1303;22664;-84
2022/10/09 00:41:44;;;;;;;8.20;5.40;;;;;;;12.79;76.03;99405.94;87180;1304;22583;-83
2022/10/09 00:44:30;;;;;;;14.20;5.80;;;;;;;12.77;75.90;99406.90;87361;1310;22527;-83
2022/10/09 00:46:44;;;;;;;13.20;6.10;;;;;;;12.75;75.82;99408.05;86949;1313;23872;-83
2022/10/09 00:48:57;;;;;;;8.50;5.20;;;;;;;12.74;75.97;99404.96;86812;1307;25591;-83
2022/10/09 00:51:01;;;;;;;11.90;5.60;;;;;;;12.72;75.92;99399.05;86835;1316;22538;-83
2022/10/09 00:53:02;;;;;;;10.10;5.90;;;;;;;12.71;75.97;99407.23;86850;1317;22634;-83
2022/10/09 00:55:06;;;;;;;9.70;5.30;;;;;;;12.69;75.90;99411.89;86724;1300;22478;-83
2022/10/09 00:57:08;;;;;;;5.80;4.80;;;;;;;12.67;75.92;99415.54;86688;1301;26086;-83
2022/10/09 00:59:10;;;;;;;12.70;4.70;;;;;;;12.65;75.85;99418.77;86733;1307;22429;-82
2022/10/09 01:01:12;;;;;;;10.40;5.20;;;;;;;12.62;75.93;99422.82;86880;1315;25377;-82
2022/10/09 01:03:14;;;;;;;9.70;4.90;;;;;;;12.60;75.83;99422.91;86941;1302;22802;-83
2022/10/09 01:05:16;;;;;;;9.50;4.80;;;;;;;12.58;75.91;99423.73;86866;1317;22522;-82
2022/10/09 01:07:42;;;;;;;9.40;4.40;;;;;;;12.56;75.92;99426.12;86705;1309;25283;-84
2022/10/09 01:10:00;;;;;;;10.30;4.50;;;;;;;12.53;75.73;99426.42;86952;1292;22489;-83
2022/10/09 01:12:16;;;;;;;11.80;5.20;;;;;;;12.50;75.77;99425.70;86823;1319;25304;-84
2022/10/09 01:14:26;;;;;;;16.60;4.70;;;;;;;12.47;75.82;99425.00;86807;1315;22641;-83
2022/10/09 01:16:34;;;;;;;12.30;4.70;;;;;;;12.44;75.86;99426.34;86972;1305;22876;-82
2022/10/09 01:18:45;;;;;;;5.30;3.80;;;;;;;12.42;75.86;99429.98;86769;1300;22484;-83
2022/10/09 01:21:11;;;;;;;11.50;4.50;;;;;;;12.38;75.82;99430.67;86741;1315;22588;-83
2022/10/09 01:23:31;;;;;;;8.90;4.10;;;;;;;12.34;75.62;99430.14;86820;1313;25229;-84
2022/10/09 01:25:53;;;;;;;5.40;3.90;;;;;;;12.31;75.73;99432.41;87272;1307;22653;-84
2022/10/09 01:27:55;;;;;;;8.20;3.60;;;;;;;12.28;75.77;99438.40;86988;1314;22478;-83
2022/10/09 01:30:07;;;;;;;9.60;3.90;;;;;;;12.25;75.80;99436.95;86869;1316;23170;-84
2022/10/09 01:32:11;;;;;;;5.40;3.70;;;;;;;12.23;75.78;99435.83;86846;1319;24269;-84
2022/10/09 01:34:15;;;;;;;12.30;4.00;;;;;;;12.20;75.78;99440.00;86788;1299;22610;-84
2022/10/09 01:36:19;;;;;;;8.30;4.00;;;;;;;12.15;75.83;99439.20;86783;1315;22480;-84
2022/10/09 01:38:23;;;;;;;6.70;3.60;;;;;;;12.15;75.91;99449.59;86815;1306;23315;-84
2022/10/09 01:40:27;;;;;;;5.50;3.70;;;;;;;12.12;75.78;99449.55;86917;1306;23055;-83
2022/10/09 01:42:30;;;;;;;11.20;3.90;;;;;;;12.09;75.75;99452.13;86884;1316;22489;-86
2022/10/09 01:44:32;;;;;;;13.70;3.90;;;;;;;12.07;75.89;99461.06;86874;1309;22475;-82
2022/10/09 01:46:34;;;;;;;9.80;3.90;;;;;;;12.03;75.77;99461.77;86855;1317;22971;-83
2022/10/09 01:48:36;;;;;;;6.00;3.60;;;;;;;12.01;75.91;99472.44;86796;1310;22542;-84
2022/10/09 01:50:43;;;;;;;6.80;3.30;;;;;;;11.98;75.88;99477.67;86949;1315;26041;-84
2022/10/09 01:53:02;;;;;;;8.80;3.40;;;;;;;11.96;75.86;99477.23;86837;1316;22517;-84
2022/10/09 01:55:19;;;;;;;7.50;3.80;;;;;;;11.94;75.97;99480.65;86862;1291;22489;-84
2022/10/09 01:57:36;;;;;;;5.80;4.00;;;;;;;11.92;75.91;99474.57;86989;1316;22598;-84
2022/10/09 01:59:42;;;;;;;6.60;3.40;;;;;;;11.89;75.94;99472.94;86798;1315;22454;-84
2022/10/09 02:01:46;;;;;;;7.90;3.60;;;;;;;11.88;75.92;99473.35;86805;1315;22789;-83
2022/10/09 02:03:50;;;;;;;12.10;3.70;;;;;;;11.86;75.90;99476.92;86933;1293;23757;-83
2022/10/09 02:05:55;;;;;;;14.10;3.70;;;;;;;11.85;75.98;99479.12;87058;1311;22504;-84
2022/10/09 02:07:58;;;;;;;8.40;3.40;;;;;;;11.83;75.98;99483.80;87070;1307;23610;-83
2022/10/09 02:10:02;;;;;;;7.80;3.10;;;;;;;11.80;76.09;99479.00;87099;1294;22438;-84
2022/10/09 02:12:08;;;;;;;11.80;3.30;;;;;;;11.76;76.14;99485.82;87336;1303;22445;-84
2022/10/09 02:14:11;;;;;;;8.30;3.00;;;;;;;11.75;75.97;99486.42;87127;1304;22490;-84
2022/10/09 02:16:26;;;;;;;5.80;3.10;;;;;;;11.73;76.08;99492.64;87013;1304;22561;-84
2022/10/09 02:18:39;;;;;;;5.70;3.40;;;;;;;11.72;75.93;99494.83;87320;1304;22482;-84
2022/10/09 02:20:46;;;;;;;11.30;3.20;;;;;;;11.69;75.89;99495.66;87116;1310;25394;-84
2022/10/09 02:22:48;;;;;;;6.00;3.40;;;;;;;11.67;75.93;99496.62;87128;1295;22484;-84
2022/10/09 02:24:50;;;;;;;5.40;3.20;;;;;;;11.66;76.03;99497.92;87239;1306;22524;-83
2022/10/09 02:26:53;;;;;;;14.00;3.70;;;;;;;11.62;76.11;99494.04;87146;1311;22531;-83
2022/10/09 02:28:57;;;;;;;5.50;2.90;;;;;;;11.63;75.97;99498.58;87192;1311;22530;-83
2022/10/09 02:31:21;;;;;;;7.50;2.80;;;;;;;11.61;76.05;99499.55;87145;1304;22791;-84
2022/10/09 02:33:30;;;;;;;20.70;3.50;;;;;;;11.58;75.98;99506.89;87319;1306;24113;-84
2022/10/09 02:35:32;;;;;;;12.40;3.30;;;;;;;11.54;76.17;99500.02;87098;1319;22460;-83
2022/10/09 02:37:34;;;;;;;10.20;2.90;;;;;;;11.51;76.09;99502.98;87084;1317;22519;-84
2022/10/09 02:39:36;;;;;;;11.60;3.20;;;;;;;11.47;76.09;99501.73;86985;1312;22502;-83
2022/10/09 02:41:37;;;;;;;7.50;2.90;;;;;;;11.45;76.18;99506.05;87140;1312;23046;-84
2022/10/09 02:43:39;;;;;;;8.20;3.30;;;;;;;11.41;76.02;99507.77;87174;1294;22512;-84
2022/10/09 02:45:41;;;;;;;5.70;2.90;;;;;;;11.39;76.10;99511.77;87054;1312;23172;-84
2022/10/09 02:47:43;;;;;;;8.90;3.70;;;;;;;11.37;76.19;99516.94;87059;1318;22541;-84
2022/10/09 02:49:45;;;;;;;12.20;3.40;;;;;;;11.34;76.21;99518.98;87038;1313;22741;-83
2022/10/09 02:51:46;;;;;;;7.80;3.20;;;;;;;11.32;76.25;99521.52;87090;1316;22807;-83
2022/10/09 02:53:51;;;;;;;8.90;3.50;;;;;;;11.31;76.28;99519.85;87182;1313;22521;-84
2022/10/09 02:55:53;;;;;;;7.20;3.40;;;;;;;11.29;76.39;99522.36;87322;1311;22452;-85
2022/10/09 02:57:54;;;;;;;8.60;3.60;;;;;;;11.26;76.28;99526.36;87153;1312;22951;-83
2022/10/09 02:59:56;;;;;;;13.20;4.00;;;;;;;11.24;76.33;99529.09;87002;1311;25366;-85
2022/10/09 03:01:57;;;;;;;14.70;4.00;;;;;;;11.21;76.33;99530.42;87121;1312;22535;-83
2022/10/09 03:04:02;;;;;;;6.50;3.40;;;;;;;11.19;76.40;99535.45;86977;1312;25946;-84
2022/10/09 03:06:10;;;;;;;6.10;3.70;;;;;;;11.16;76.30;99535.91;87158;1306;22459;-84
2022/10/09 03:08:13;;;;;;;7.30;4.10;;;;;;;11.14;76.50;99541.80;87165;1313;22563;-83
2022/10/09 03:10:14;;;;;;;7.10;4.10;;;;;;;11.13;76.45;99539.78;87323;1313;24368;-83
2022/10/09 03:12:20;;;;;;;15.30;4.80;;;;;;;11.10;76.57;99545.54;87149;1313;23008;-83
2022/10/09 03:14:21;;;;;;;8.50;4.40;;;;;;;11.07;76.44;99543.31;87461;1311;22585;-83
2022/10/09 03:16:25;;;;;;;10.60;4.30;;;;;;;11.05;76.50;99555.90;87249;1306;22533;-84
2022/10/09 03:18:26;;;;;;;9.00;4.90;;;;;;;11.02;76.48;99554.80;87295;1313;22517;-84
2022/10/09 03:20:29;;;;;;;10.90;5.00;;;;;;;11.00;76.68;99556.99;87277;1311;26630;-85
2022/10/09 03:22:31;;;;;;;11.00;5.10;;;;;;;10.98;76.56;99557.97;87146;1312;22476;-84
2022/10/09 03:24:32;;;;;;;9.00;4.70;;;;;;;10.94;76.61;99560.22;87155;1312;22496;-84
2022/10/09 03:26:34;;;;;;;12.00;4.90;;;;;;;10.90;76.63;99564.58;87278;1311;22498;-84
2022/10/09 03:28:39;;;;;;;17.00;5.60;;;;;;;10.86;76.71;99560.35;87347;1315;22881;-84
2022/10/09 03:30:40;;;;;;;9.50;4.20;;;;;;;10.81;76.72;99564.23;87340;1309;22519;-83
2022/10/09 03:32:42;;;;;;;7.40;4.40;;;;;;;10.78;76.62;99566.15;87426;1306;25411;-83
2022/10/09 03:34:43;;;;;;;13.40;5.40;;;;;;;10.74;76.88;99572.44;87360;1313;23280;-84
2022/10/09 03:36:45;;;;;;;11.80;5.50;;;;;;;10.69;76.79;99572.98;87206;1296;26581;-83
2022/10/09 03:38:47;;;;;;;19.80;5.10;;;;;;;10.66;76.78;99569.05;87166;1316;22504;-84
2022/10/09 03:40:49;;;;;;;13.70;5.20;;;;;;;10.62;76.73;99572.38;87172;1309;23553;-83
2022/10/09 03:42:50;;;;;;;15.10;4.40;;;;;;;10.59;76.83;99570.55;87243;1296;22529;-84
2022/10/09 03:44:53;;;;;;;13.80;4.90;;;;;;;10.54;76.86;99573.90;87079;1312;22881;-83
2022/10/09 03:46:54;;;;;;;11.10;4.00;;;;;;;10.51;76.78;99577.73;87078;1306;22625;-82
2022/10/09 03:48:56;;;;;;;11.60;4.60;;;;;;;10.47;76.85;99579.12;86992;1312;22489;-83
2022/10/09 03:50:57;;;;;;;17.20;4.30;;;;;;;10.43;76.84;99578.75;87207;1311;22501;-84
2022/10/09 03:52:59;;;;;;;7.60;4.90;;;;;;;10.36;76.87;99581.24;87046;1294;26340;-85
2022/10/09 03:55:01;;;;;;;11.70;4.30;;;;;;;10.31;76.81;99580.34;87085;1318;22963;-84
2022/10/09 03:57:02;;;;;;;11.80;4.60;;;;;;;10.27;76.78;99584.20;87070;1312;22503;-85
2022/10/09 03:59:06;;;;;;;17.30;5.10;;;;;;;10.22;76.88;99587.39;87035;1297;22510;-84
2022/10/09 04:01:08;;;;;;;9.50;5.00;;;;;;;10.19;76.78;99591.88;87096;1316;25419;-85
2022/10/09 04:03:10;;;;;;;7.70;4.50;;;;;;;10.15;76.88;99595.86;87163;1310;22570;-85
2022/10/09 04:05:11;;;;;;;10.60;5.00;;;;;;;10.11;76.95;99595.67;86988;1313;23225;-85
2022/10/09 04:07:13;;;;;;;11.40;5.20;;;;;;;10.08;76.77;99597.54;87277;1303;22615;-84
2022/10/09 04:09:15;;;;;;;12.70;4.80;;;;;;;10.03;76.87;99600.50;87080;1307;24289;-84
2022/10/09 04:11:16;;;;;;;12.40;4.80;;;;;;;10.00;76.83;99603.45;87086;1311;22508;-83
2022/10/09 04:13:18;;;;;;;14.80;4.40;;;;;;;9.95;76.98;99602.92;87122;1313;22422;-83
2022/10/09 04:15:20;;;;;;;10.10;4.10;;;;;;;9.89;77.23;99606.80;87177;1303;22443;-83
2022/10/09 04:17:21;;;;;;;7.50;4.10;;;;;;;9.84;76.96;99608.05;87069;1313;23662;-85
2022/10/09 04:19:23;;;;;;;13.00;5.10;;;;;;;9.68;77.10;99592.83;87011;1312;23436;-84
2022/10/09 04:21:24;;;;;;;12.60;5.10;;;;;;;9.75;76.97;99608.71;87077;1319;22482;-84
2022/10/09 04:23:26;;;;;;;7.00;4.70;;;;;;;9.71;76.89;99608.66;87157;1317;22553;-83
2022/10/09 04:25:28;;;;;;;11.60;5.00;;;;;;;9.68;77.18;99607.38;87003;1310;22550;-84
2022/10/09 04:27:30;;;;;;;10.00;4.60;;;;;;;9.64;76.91;99610.66;87005;1311;22521;-83
2022/10/09 04:29:32;;;;;;;13.40;5.30;;;;;;;9.61;76.96;99610.39;87033;1311;22529;-83
2022/10/09 04:31:34;;;;;;;19.70;5.20;;;;;;;9.59;77.41;99614.69;87168;1309;24031;-84
2022/10/09 04:33:35;;;;;;;8.30;4.60;;;;;;;9.56;77.22;99618.98;87116;1309;22515;-84
2022/10/09 04:35:41;;;;;;;14.30;5.50;;;;;;;9.55;77.21;99622.20;87139;1306;22585;-85
2022/10/09 04:37:43;;;;;;;13.50;4.90;;;;;;;9.45;77.03;99612.70;87356;1303;25237;-84
2022/10/09 04:39:44;;;;;;;17.20;5.00;;;;;;;9.46;77.11;99625.29;87100;1296;23432;-84
2022/10/09 04:41:46;;;;;;;7.30;4.70;;;;;;;9.42;77.15;99631.04;87049;1309;22851;-83
2022/10/09 04:43:48;;;;;;;13.40;4.60;;;;;;;9.38;76.95;99636.96;87313;1304;22699;-83
2022/10/09 04:45:49;;;;;;;7.70;5.10;;;;;;;9.34;77.28;99638.11;87161;1310;22499;-83
2022/10/09 04:47:51;;;;;;;8.80;5.20;;;;;;;9.31;77.32;99644.56;87280;1295;22526;-84
2022/10/09 04:49:52;;;;;;;13.30;5.30;;;;;;;9.28;77.13;99645.69;87215;1287;22598;-84
2022/10/09 04:51:54;;;;;;;8.90;5.50;;;;;;;9.25;77.20;99647.70;87171;1309;22516;-84
2022/10/09 04:53:56;;;;;;;19.80;5.80;;;;;;;9.20;77.55;99645.25;87098;1312;22789;-83
2022/10/09 04:56:02;;;;;;;10.80;6.20;;;;;;;9.23;77.80;99656.55;87239;1304;22561;-85
2022/10/09 04:58:03;;;;;;;16.10;6.40;;;;;;;9.24;77.57;99662.66;87135;1310;22561;-85
2022/10/09 05:00:05;;;;;;;12.80;5.80;;;;;;;9.24;77.85;99663.88;87189;1313;25374;-84
2022/10/09 05:02:07;;;;;;;12.40;7.00;;;;;;;9.26;77.76;99661.55;87215;1317;24248;-84
2022/10/09 05:04:09;;;;;;;14.80;6.70;;;;;;;9.24;77.56;99662.15;87074;1307;25956;-86
2022/10/09 05:06:12;;;;;;;13.30;6.70;;;;;;;9.23;77.63;99662.69;87247;1307;24578;-85
2022/10/09 05:08:14;;;;;;;9.20;6.50;;;;;;;9.22;77.36;99667.11;87306;1301;22518;-85
2022/10/09 05:10:16;;;;;;;14.30;6.00;;;;;;;9.11;77.63;99652.36;87237;1304;22615;-85
2022/10/09 05:12:18;;;;;;;16.90;6.10;;;;;;;9.19;77.50;99667.02;87222;1312;22492;-84
2022/10/09 05:14:20;;;;;;;11.10;6.20;;;;;;;9.17;77.73;99662.70;87322;1313;22610;-84
2022/10/09 05:16:25;;;;;;;7.30;5.80;;;;;;;9.13;77.54;99671.05;87387;1311;22553;-84
2022/10/09 05:18:27;;;;;;;9.40;6.20;;;;;;;9.10;77.58;99675.19;87320;1312;22520;-85
2022/10/09 05:20:29;;;;;;;12.20;5.90;;;;;;;9.09;77.48;99676.11;87259;1304;22471;-85
2022/10/09 05:22:30;;;;;;;8.30;6.50;;;;;;;9.08;77.57;99678.23;87285;1311;25963;-85
2022/10/09 05:24:32;;;;;;;9.20;6.20;;;;;;;9.08;77.57;99677.17;87211;1306;23305;-84
2022/10/09 05:26:33;;;;;;;17.80;6.60;;;;;;;9.08;77.81;99675.98;87191;1312;22540;-84
2022/10/09 05:28:35;;;;;;;10.40;5.90;;;;;;;9.07;77.56;99677.58;87312;1296;22115;-85
2022/10/09 05:30:40;;;;;;;10.10;5.30;;;;;;;9.05;77.81;99676.04;87162;1296;22489;-86
2022/10/09 05:32:42;;;;;;;14.80;5.20;;;;;;;9.03;77.89;99674.35;87396;1306;22495;-85
2022/10/09 05:34:44;;;;;;;6.80;4.40;;;;;;;9.01;77.54;99679.83;87209;1312;22883;-86
2022/10/09 05:36:45;;;;;;;11.80;4.50;;;;;;;9.01;77.69;99681.43;87278;1313;24913;-85
2022/10/09 05:38:47;;;;;;;9.80;3.90;;;;;;;9.00;77.59;99685.33;87306;1306;22499;-86
2022/10/09 05:40:54;;;;;;;5.80;3.30;;;;;;;9.00;77.47;99693.73;87250;1305;23413;-86
2022/10/09 05:42:56;;;;;;;10.90;3.80;;;;;;;9.01;77.65;99698.78;87185;1311;22548;-86
2022/10/09 05:44:58;;;;;;;4.80;2.80;;;;;;;9.01;77.57;99701.40;87189;1313;22652;-85
2022/10/09 05:46:59;;;;;;;4.20;3.00;;;;;;;9.03;77.56;99707.13;87211;1316;25542;-85
2022/10/09 05:49:04;;;;;;;5.10;2.50;;;;;;;9.08;77.40;99713.30;87210;1309;22803;-86
2022/10/09 05:51:15;;;;;;;6.00;3.10;;;;;;;9.10;77.24;99712.18;87194;1315;22526;-85
2022/10/09 05:53:17;;;;;;;5.60;2.90;;;;;;;9.15;77.42;99719.02;87354;1302;22531;-85
2022/10/09 05:55:18;;;;;;;4.70;3.00;;;;;;;9.19;77.79;99721.55;87320;1303;23246;-86
2022/10/09 05:57:20;;;;;;;3.00;2.50;;;;;;;9.24;77.46;99722.64;87193;1311;23165;-84
2022/10/09 05:59:21;;;;;;;3.80;2.80;;;;;;;9.16;77.50;99704.46;87129;1312;22487;-86
2022/10/09 06:01:26;;;;;;;13.60;3.20;;;;;;;9.30;77.47;99722.77;87397;1309;22904;-86
2022/10/09 06:03:27;;;;;;;6.50;2.50;;;;;;;9.34;77.31;99726.52;87208;1310;22506;-86
2022/10/09 06:05:29;;;;;;;8.40;3.10;;;;;;;9.36;77.37;99726.80;87237;1294;24358;-85
2022/10/09 06:07:30;;;;;;;3.40;2.40;;;;;;;9.39;77.36;99726.56;87348;1306;22496;-86
2022/10/09 06:09:32;;;;;;;3.70;3.10;;;;;;;9.40;77.13;99729.70;87136;1295;22528;-84
2022/10/09 06:11:36;;;;;;;7.00;2.70;;;;;;;9.42;77.43;99735.93;87095;1312;22611;-86
2022/10/09 06:13:38;;;;;;;7.00;3.10;;;;;;;9.45;77.45;99741.48;87349;1313;22476;-86
2022/10/09 06:15:50;;;;;;;4.90;3.00;;;;;;;9.46;77.29;99745.80;87309;1312;22583;-86
2022/10/09 06:17:52;;;;;;;2.90;2.60;;;;;;;9.49;77.39;99754.12;87338;1310;22478;-86
2022/10/09 06:19:53;;;;;;;5.90;3.10;;;;;;;9.53;77.32;99754.72;87081;1320;22521;-86
2022/10/09 06:21:55;;;;;;;7.30;4.10;;;;;;;9.58;77.24;99757.54;87241;1310;24184;-85
2022/10/09 06:23:59;;;;;;;13.20;4.30;;;;;;;9.64;77.41;99758.75;87093;1312;22492;-86
2022/10/09 06:26:05;;;;;;;17.10;4.50;;;;;;;9.69;77.55;99760.88;87438;1311;23513;-86
2022/10/09 06:28:07;;;;;;;10.10;4.20;;;;;;;9.73;77.61;99761.64;87197;1317;22479;-85
2022/10/09 06:30:09;;;;;;;14.90;4.70;;;;;;;9.76;77.51;99760.33;87242;1312;22513;-86
2022/10/09 06:32:10;;;;;;;12.20;4.10;;;;;;;9.77;77.34;99763.61;87306;1311;22614;-84
2022/10/09 06:34:12;;;;;;;10.90;4.00;;;;;;;9.79;77.36;99763.36;87523;1299;22468;-86
2022/10/09 06:36:16;;;;;;;11.60;4.70;;;;;;;9.84;77.60;99767.26;87316;1319;23069;-86
2022/10/09 06:38:18;;;;;;;7.20;3.40;;;;;;;9.89;77.40;99771.47;87392;1312;22655;-86
2022/10/09 06:40:19;;;;;;;12.30;3.30;;;;;;;9.94;77.44;99777.45;87136;1315;22764;-84
2022/10/09 06:42:21;;;;;;;13.40;2.80;;;;;;;9.99;77.23;99780.45;87227;1312;22457;-85
2022/10/09 06:44:23;;;;;;;7.30;2.60;;;;;;;10.02;77.16;99784.38;87301;1309;22501;-85
2022/10/09 06:46:29;;;;;;;8.40;2.80;;;;;;;10.06;77.26;99787.95;87523;1305;22660;-86
2022/10/09 06:48:32;;;;;;;6.20;2.70;;;;;;;10.07;77.04;99789.52;87501;1295;24285;-83
2022/10/09 06:50:36;;;;;;;6.90;3.10;;;;;;;10.08;76.97;99793.88;87542;1312;22538;-85
2022/10/09 06:52:37;;;;;;;9.20;3.50;;;;;;;10.10;76.99;99794.67;87466;1312;25377;-86
2022/10/09 06:54:39;;;;;;;10.10;3.20;;;;;;;10.14;76.95;99792.93;87396;1306;22496;-84
2022/10/09 06:56:41;;;;;;;9.90;3.50;;;;;;;10.18;77.06;99793.52;87599;1310;22614;-84
2022/10/09 06:58:44;;;;;;;5.20;3.20;;;;;;;10.24;76.95;99794.37;87449;1312;23065;-84
2022/10/09 07:00:46;;;;;;;8.40;3.10;;;;;;;10.30;76.89;99795.23;87303;1314;22601;-85
2022/10/09 07:02:49;;;;;;;11.00;3.30;;;;;;;10.33;76.89;99791.10;87566;1309;22124;-83
2022/10/09 07:04:50;;;;;;;5.10;3.10;;;;;;;10.43;76.87;99798.16;87496;1310;23928;-83
2022/10/09 07:06:52;;;;;;;6.90;3.10;;;;;;;10.50;76.81;99799.14;87255;1296;23295;-79
2022/10/09 07:09:00;;;;;;;12.30;3.60;;;;;;;10.55;76.66;99797.56;87101;1312;22592;-81
2022/10/09 07:11:15;;;;;;;7.70;3.50;;;;;;;10.61;76.64;99799.12;87061;1312;22576;-83
2022/10/09 07:13:17;;;;;;;5.80;3.30;;;;;;;10.63;76.57;99802.75;87261;1304;22532;-83
2022/10/09 07:15:19;;;;;;;7.40;3.90;;;;;;;10.63;76.57;99802.92;87252;1298;23775;-83
2022/10/09 07:17:20;;;;;;;8.20;3.90;;;;;;;10.66;76.39;99803.16;87211;1291;25907;-83
2022/10/09 07:19:22;;;;;;;6.70;3.40;;;;;;;10.72;76.66;99802.79;87088;1310;22596;-81
2022/10/09 07:21:24;;;;;;;10.30;3.50;;;;;;;10.79;76.63;99805.51;87260;1313;22430;-80
2022/10/09 07:23:27;;;;;;;6.00;3.00;;;;;;;10.83;76.37;99809.09;87044;1295;22481;-82
2022/10/09 07:25:29;;;;;;;6.50;3.40;;;;;;;10.86;76.25;99811.77;87230;1297;24250;-81
2022/10/09 07:27:31;;;;;;;5.40;3.20;;;;;;;10.86;76.09;99816.70;87052;1297;24338;-81
2022/10/09 07:29:33;;;;;;;9.10;3.50;;;;;;;10.86;76.01;99817.06;86726;1304;22457;-83
2022/10/09 07:31:34;;;;;;;10.00;3.80;;;;;;;10.86;75.99;99818.08;87115;1303;22501;-81
2022/10/09 07:33:36;;;;;;;10.10;4.70;;;;;;;10.85;75.69;99816.72;86810;1294;22498;-82
2022/10/09 07:35:38;;;;;;;8.00;4.70;;;;;;;10.87;75.66;99821.23;86719;1295;25214;-79
2022/10/09 07:37:39;;;;;;;7.50;4.70;;;;;;;10.88;75.85;99824.53;86532;1297;22504;-80
2022/10/09 07:39:41;;;;;;;6.90;4.70;;;;;;;10.89;75.78;99824.48;86532;1310;22555;-79
2022/10/09 07:41:43;;;;;;;17.20;8.30;;;;;;;10.92;75.80;99824.55;86759;1295;22512;-80
2022/10/09 07:43:44;;;;;;;13.00;6.10;;;;;;;10.97;75.86;99830.35;86983;1306;22493;-81
2022/10/09 07:45:46;;;;;;;9.80;6.80;;;;;;;11.02;75.90;99830.70;86657;1312;22685;-81
2022/10/09 07:47:48;;;;;;;12.60;6.30;;;;;;;11.06;75.86;99832.48;87076;1293;22477;-81
2022/10/09 07:49:49;;;;;;;17.10;7.30;;;;;;;11.11;76.04;99833.40;87130;1288;24257;-80
2022/10/09 07:51:51;;;;;;;22.60;8.10;;;;;;;11.17;76.00;99830.70;86678;1313;22484;-83
2022/10/09 07:53:53;;;;;;;13.00;7.80;;;;;;;11.20;75.70;99833.92;87086;1291;22599;-77
2022/10/09 07:55:55;;;;;;;14.10;7.50;;;;;;;11.18;75.70;99834.00;86661;1310;22692;-83
2022/10/09 07:57:56;;;;;;;12.30;8.30;;;;;;;11.14;75.64;99831.52;87109;1312;22544;-78
2022/10/09 07:59:58;;;;;;;12.20;8.30;;;;;;;11.09;75.59;99833.10;86827;1312;22512;-83
2022/10/09 08:02:00;;;;;;;14.70;8.30;;;;;;;11.11;75.66;99835.14;87198;1313;22461;-82
2022/10/09 08:04:02;;;;;;;12.00;8.70;;;;;;;11.17;75.80;99837.05;87039;1313;25254;-81
2022/10/09 08:06:04;;;;;;;15.90;8.80;;;;;;;11.23;75.71;99837.85;87068;1312;22436;-84
2022/10/09 08:08:06;;;;;;;19.50;9.90;;;;;;;11.30;75.62;99837.25;87121;1311;22510;-81
2022/10/09 08:10:09;;;;;;;17.20;10.90;;;;;;;11.38;75.52;99836.63;87000;1306;22514;-82
2022/10/09 08:12:10;;;;;;;24.60;9.70;;;;;;;11.50;75.68;99838.98;87030;1298;22485;-81
2022/10/09 08:14:13;;;;;;;19.20;9.80;;;;;;;11.64;75.42;99840.21;86991;1295;25660;-81
2022/10/09 08:16:16;;;;;;;23.80;10.30;;;;;;;11.69;75.30;99842.45;87219;1311;25382;-82
2022/10/09 08:18:18;;;;;;;19.10;9.90;;;;;;;11.71;75.17;99844.84;86966;1313;25045;-83
2022/10/09 08:20:19;;;;;;;22.00;9.70;;;;;;;11.67;74.95;99848.17;87045;1290;22683;-85
2022/10/09 08:22:21;;;;;;;20.10;9.60;;;;;;;11.70;75.12;99851.95;87319;1284;23156;-80
2022/10/09 08:24:23;;;;;;;18.60;8.20;;;;;;;11.81;75.23;99850.46;87144;1297;22484;-83
2022/10/09 08:26:27;;;;;;;14.50;7.90;;;;;;;11.96;75.30;99852.88;87199;1307;22521;-82
2022/10/09 08:28:29;;;;;;;13.20;7.10;;;;;;;12.10;75.11;99853.04;86536;1312;22848;-80
2022/10/09 08:30:31;;;;;;;10.50;5.60;;;;;;;12.19;74.78;99857.27;86850;1289;22511;-81
2022/10/09 08:32:32;;;;;;;10.70;7.50;;;;;;;12.22;74.56;99863.13;86945;1298;22486;-81
2022/10/09 08:34:34;;;;;;;14.20;7.30;;;;;;;12.27;74.56;99856.57;86895;1304;22504;-82
2022/10/09 08:36:36;;;;;;;27.10;7.20;;;;;;;12.38;74.71;99855.77;86912;1288;22578;-81
2022/10/09 08:38:37;;;;;;;10.70;5.90;;;;;;;12.53;74.53;99862.04;87020;1295;22555;-82
2022/10/09 08:41:01;;;;;;;10.10;5.50;;;;;;;12.64;74.13;99861.75;87235;1295;22543;-81
2022/10/09 08:43:05;;;;;;;10.30;6.10;;;;;;;12.79;74.11;99857.75;87163;1310;22464;-81
2022/10/09 08:45:17;;;;;;;8.20;5.60;;;;;;;12.88;73.70;99854.72;86832;1304;22491;-80
2022/10/09 08:47:39;;;;;;;15.10;7.00;;;;;;;12.92;73.74;99861.98;86948;1293;22467;-81
2022/10/09 08:50:08;;;;;;;17.10;6.30;;;;;;;12.90;73.56;99863.63;86915;1295;25376;-82
2022/10/09 08:52:39;;;;;;;22.80;6.60;;;;;;;12.88;73.41;99870.06;86955;1297;22723;-81
2022/10/09 08:54:40;;;;;;;21.80;6.40;;;;;;;12.92;73.53;99870.77;86699;1300;22529;-85
2022/10/09 08:56:43;;;;;;;13.20;6.40;;;;;;;12.93;73.59;99872.14;86795;1321;23788;-85
2022/10/09 08:58:44;;;;;;;8.70;6.10;;;;;;;12.97;73.64;99869.69;87004;1324;22541;-85
2022/10/09 09:00:53;;;;;;;10.90;4.80;;;;;;;13.03;73.62;99869.21;86961;1304;22488;-83
2022/10/09 09:03:07;;;;;;;8.00;3.60;;;;;;;13.10;73.22;99872.30;86891;1318;24315;-84
2022/10/09 09:05:18;;;;;;;6.30;3.90;;;;;;;13.11;73.03;99869.26;87006;1323;23885;-85
2022/10/09 09:07:28;;;;;;;7.90;3.70;;;;;;;13.14;73.17;99868.59;87050;1310;22383;-84
2022/10/09 09:09:36;;;;;;;11.50;4.20;;;;;;;13.23;73.13;99867.83;86985;1318;24312;-84
2022/10/09 09:11:37;;;;;;;6.60;3.80;;;;;;;13.33;73.18;99870.56;87008;1319;22674;-85
2022/10/09 09:13:53;;;;;;;9.80;3.30;;;;;;;13.41;72.81;99872.18;87035;1300;22531;-86
2022/10/09 09:16:07;;;;;;;10.80;3.70;;;;;;;13.43;72.75;99869.97;87257;1318;23936;-85
2022/10/09 09:18:42;;;;;;;8.60;3.80;;;;;;;13.44;72.65;99874.86;87261;1318;22641;-82
2022/10/09 09:20:49;;;;;;;7.20;3.70;;;;;;;13.41;72.30;99871.30;87478;1322;22549;-83
2022/10/09 09:22:52;;;;;;;7.00;2.90;;;;;;;13.30;71.93;99870.18;87403;1318;26866;-86
2022/10/09 09:24:56;;;;;;;10.20;2.80;;;;;;;13.25;72.37;99872.17;87191;1324;22817;-86
2022/10/09 09:27:03;;;;;;;6.20;3.10;;;;;;;13.28;72.29;99875.00;87361;1309;22830;-84
2022/10/09 09:29:05;;;;;;;6.60;3.20;;;;;;;13.37;72.44;99867.23;87350;1318;23222;-84
2022/10/09 09:31:18;;;;;;;14.30;5.90;;;;;;;13.46;72.33;99867.55;87407;1322;22479;-83
2022/10/09 09:33:43;;;;;;;10.80;4.80;;;;;;;13.53;72.25;99861.38;87957;1313;22632;-85
2022/10/09 09:36:11;;;;;;;6.50;3.60;;;;;;;13.65;72.19;99867.72;87907;1312;22535;-85
2022/10/09 09:38:14;;;;;;;5.00;2.00;;;;;;;13.75;72.01;99866.20;87829;1314;22604;-84
2022/10/09 09:40:18;;;;;;;3.40;1.40;;;;;;;13.88;71.82;99867.91;87688;1304;23705;-84
2022/10/09 09:42:21;;;;;;;2.30;1.60;;;;;;;13.94;71.28;99871.49;87623;1303;22681;-85
2022/10/09 09:44:25;;;;;;;2.90;2.10;;;;;;;13.94;71.32;99874.52;87642;1306;22298;-82